Log Lane Village, CO

10:37 PM MDT on September 14, 2014 (GMT -0600)
Fort Morgan | Change Station
CLOSE
Current Station
Personal Weather Station
Location: Fort Morgan, CO
Elevation: 4327 ft
Nearby Weather Stations

Elev 4327 ft 40.24 °N, 103.79 °W | Updated 4 seconds ago

Partly Cloudy
Partly Cloudy
63.9 °F
Feels Like 63.9 °F
N
5.4
Wind Variable Wind from NE
Gusts 9.8 mph

Today
High -- | Low -- °F
--% Chance of Precip.
Yesterday
High -- | Low -- °F
Precip. -- in
6:35 AM 7:05 PM
Waning Gibbous, 59% visible
Pressure 30.07 in
Visibility 10.0 miles
Clouds Clear
Dew Point 52 °F
Humidity 64%
Rainfall 0.00 in
Snow Depth 0 in , 0 in , 0 in
UV 0.0 out of 12
Pollen 7.60 out of 12
Air Quality Not available.
Flu Activity Not available.
METAR KFMM 150415Z AUTO 35014G21KT 10SM CLR 16/09 A3007 RMK AO2 T01600086

More Conditions Fewer Conditions

Pressure 30.07 in
Visibility 10.0 miles
Clouds Clear
Dew Point 52 °F
Humidity 64%
Rainfall 0.00 in
Snow Depth 0 in , 0 in , 0 in
UV 0.0 out of 12
Pollen 7.60 out of 12
Air Quality Not available.
Flu Activity Not available.
METAR KFMM 150415Z AUTO 35014G21KT 10SM CLR 16/09 A3007 RMK AO2 T01600086

More Conditions Fewer Conditions

10-Day Weather Forecast

Almanac

Astronomy

Sep. 14, 2014 Rise Set
Actual Time 6:35 AM MDT 7:05 PM MDT
Civil Twilight 6:07 AM MDT 7:32 PM MDT
Nautical Twilight 5:35 AM MDT 8:05 PM MDT
Astronomical Twilight 5:02 AM MDT 8:37 PM MDT
Moon 10:59 PM MDT (9/14) 12:44 PM MDT (9/14)
Length of Visible Light 13h 25m
Length of Day
12h 30m
Tomorrow will be 2m 37s shorter.
Waning Gibbous, 59% of the Moon is Illuminated
Sep 15
Waning Gibbous
Sep 15
Last Quarter
Sep 24
New
Oct 1
First Quarter
Oct 8
Full

Yesterday's Extremes

State Highs State Lows

Community

WunderPhotos

Upload Photos

1,753,400 photos uploaded!

Nearby

Snow Depth

Station Depth Elevation
Ripple Creek 0 in 10340 ft
Kiln 0 in 9600 ft
Overland Reservoir 0 in 9880 ft
Rabbit Ears 0 in 9400 ft
Willow Creek Pass 0 in 9540 ft

Earthquake Activity

City Distance Mag. Time & Date
No recent earthquake activity has been reported nearby.
Minimum magnitude displayed is 2.5.

Coastal Water Temperatures

Place Temperature
No Stations Reporting

Nearby Weather Stations